• Join FlightAware (Why Join?)
  • Login
  • US Flag 
05:14PM EDT


 

Airport Tracker/Info


-or-


 

Live Flight TrackerFlight Track Log ✈ UAL1177 ✈ 19-May-2013 ✈ KRDU - KIAH

Flight Track Log - Related Links

Times and Time Zones

All times are in EDT time to prevent confusion due to time zone crossing. See the UAL1177 flight status page for this flight to view local times or setup timezone preferences in your user account.

Time Position Orientation Groundspeed Altitude Reporting Facility
EDT Latitude Longitude Course Direction KTS MPH feet Rate Location/Type
06:43PM 35.8664 -78.8164 253° West 183 211 1,300  Level Washington Center
06:43PM 35.8781 -78.8528 292° West 224 258 2,500 2,460 Climbing Washington Center
06:44PM 35.9608 -78.8717 350° North 298 343 5,600 2,760 Climbing Washington Center
06:45PM 36.0244 -78.9153 331° Northwest 302 348 8,600 2,640 Climbing Washington Center
06:46PM 35.8329 -79.3040 262° West  Level FlightAware Approximate
06:46PM 36.0767 -78.9894 311° West 296 341 11,000  Level Washington Center
06:47PM 35.8185 -79.4339 262° West  Level FlightAware Approximate
06:47PM 36.0694 -79.0894 265° West 276 318 12,700  Level Washington Center
06:48PM 35.8092 -79.5634 253° West  Level FlightAware Approximate
06:49PM 35.9639 -79.2797 236° Southwest 315 362 16,100  Level Atlanta Center
06:50PM 35.9014 -79.3886 235° Southwest 356 410 18,100 2,220 Climbing Atlanta Center
06:51PM 35.8331 -79.5153 236° Southwest 406 467 20,600 2,100 Climbing Atlanta Center
06:52PM 35.7983 -79.6478 252° West 424 488 22,400 1,680 Climbing Atlanta Center
06:53PM 35.7739 -79.7822 262° West 417 480 24,000 1,500 Climbing Atlanta Center
06:54PM 35.7652 -79.7796 262° West  Level FlightAware Approximate
06:54PM 35.7475 -79.9294 258° West 428 493 25,500  Level Atlanta Center
06:55PM 35.7167 -80.0692 255° West 433 498 26,000 840 Climbing Atlanta Center
06:56PM 35.6578 -80.1869 238° Southwest 440 506 27,200 960 Climbing Atlanta Center
06:57PM 35.5886 -80.3156 237° Southwest 455 524 28,000 360 Climbing Atlanta Center
06:58PM 35.5097 -80.4594 236° Southwest 466 536 28,000  Level Atlanta Center
06:59PM 35.4122 -80.5603 220° Southwest 466 536 28,000  Level Atlanta Center
07:00PM 35.3153 -80.6664 222° Southwest 471 542 28,000  Level Atlanta Center
07:01PM 35.2244 -80.7844 227° Southwest 471 542 28,000 240 Level Atlanta Center
07:02PM 35.1228 -80.8825 218° Southwest 470 541 28,500 720 Climbing Atlanta Center
07:03PM 35.0361 -81.0050 229° Southwest 470 541 29,500 720 Climbing Atlanta Center
07:04PM 34.9742 -81.1236 238° Southwest 470 541 30,000 240 Climbing Atlanta Center
07:05PM 34.9042 -81.2553 237° Southwest 470 541 30,000  Level Atlanta Center
07:06PM 34.8342 -81.3867 237° Southwest 470 541 30,000  Level Atlanta Center
07:07PM 34.7639 -81.5181 237° Southwest 465 535 30,000  Level Atlanta Center
07:08PM 34.6956 -81.6489 238° Southwest 465 535 30,000  Level Atlanta Center
07:09PM 34.6247 -81.7694 234° Southwest 465 535 30,000  Level Atlanta Center
07:10PM 34.5561 -81.8975 237° Southwest 460 529 30,000  Level Atlanta Center
07:11PM 34.4875 -82.0278 237° Southwest 460 529 30,000  Level Atlanta Center
07:12PM 34.4183 -82.1553 237° Southwest 460 529 30,000  Level Atlanta Center
07:13PM 34.3494 -82.2850 237° Southwest 460 529 30,000  Level Atlanta Center
07:14PM 34.2781 -82.4122 236° Southwest 460 529 30,000  Level Atlanta Center
07:15PM 34.2067 -82.5417 236° Southwest 460 529 30,000  Level Atlanta Center
07:16PM 34.1372 -82.6736 238° Southwest 460 529 30,000  Level Atlanta Center
07:17PM 34.0656 -82.8025 236° Southwest 467 537 30,000  Level Atlanta Center
07:18PM 33.9897 -82.9289 234° Southwest 467 537 30,000  Level Atlanta Center
07:19PM 33.9175 -83.0575 236° Southwest 467 537 30,000  Level Atlanta Center
07:20PM 33.8478 -83.1883 237° Southwest 474 545 30,000  Level Atlanta Center
07:21PM 33.7650 -83.3267 234° Southwest 468 539 30,000  Level Atlanta Center
07:22PM 33.6928 -83.4569 236° Southwest 473 544 30,000  Level Atlanta Center
07:23PM 33.6203 -83.5822 235° Southwest 473 544 30,000  Level Atlanta Center
07:24PM 33.5494 -83.7097 236° Southwest 468 539 30,000  Level Atlanta Center
07:25PM 33.4769 -83.8347 235° Southwest 468 539 30,000  Level Atlanta Center
07:26PM 33.4039 -83.9642 236° Southwest 473 544 30,000  Level Atlanta Center
07:27PM 33.3308 -84.0886 235° Southwest 473 544 30,000  Level Atlanta Center
07:28PM 33.2619 -84.2103 236° Southwest 463 533 30,000  Level Atlanta Center
07:29PM 33.1992 -84.3217 236° Southwest 457 526 30,000  Level Atlanta Center
07:30PM 33.1256 -84.4431 234° Southwest 457 526 30,000  Level Atlanta Center
07:31PM 33.0564 -84.5642 236° Southwest 451 519 30,000  Level Atlanta Center
07:32PM 32.9847 -84.6875 235° Southwest 451 519 30,000  Level Atlanta Center
07:33PM 32.9131 -84.8108 235° Southwest 458 527 30,000  Level Atlanta Center
07:34PM 32.8392 -84.9364 235° Southwest 463 533 30,000  Level Atlanta Center
07:35PM 32.7653 -85.0542 233° Southwest 457 526 30,000  Level Atlanta Center
07:36PM 32.6972 -85.1817 238° Southwest 457 526 30,000  Level Atlanta Center
07:37PM 32.6208 -85.3039 233° Southwest 463 533 30,000  Level Atlanta Center
07:38PM 32.5467 -85.4286 235° Southwest 468 539 30,000  Level Atlanta Center
07:39PM 32.4719 -85.5531 235° Southwest 468 539 30,000  Level Atlanta Center
07:40PM 32.3975 -85.6772 235° Southwest 468 539 30,000  Level Atlanta Center
07:41PM 32.3164 -85.8061 233° Southwest 476 548 30,000  Level Atlanta Center
07:42PM 32.2436 -85.9272 235° Southwest 482 555 30,000  Level Atlanta Center
07:43PM 32.1686 -86.0508 234° Southwest 470 541 30,000  Level Atlanta Center
07:44PM 32.0850 -86.1839 233° Southwest 464 534 30,000 300 Level Atlanta Center
07:45PM 32.0139 -86.3069 236° Southwest 470 541 30,700 480 Climbing Atlanta Center
07:46PM 31.9406 -86.4275 234° Southwest 465 535 31,000 660 Climbing Atlanta Center
07:47PM 31.8672 -86.5453 234° Southwest 465 535 32,100 1,080 Climbing Atlanta Center
07:48PM 31.7981 -86.6608 235° Southwest 454 522 33,200 900 Climbing Atlanta Center
07:49PM 31.7269 -86.7733 233° Southwest 449 517 34,000 360 Climbing Atlanta Center
07:50PM 31.6575 -86.8883 235° Southwest 444 511 34,000  Level Atlanta Center
07:51PM 31.5881 -86.9983 233° Southwest 444 511 34,000  Level Atlanta Center
07:52PM 31.5336 -87.0964 237° Southwest 425 489 34,000  Level Atlanta Center
07:55PM 31.3667 -87.3517 233° Southwest 410 472 34,000  Level Houston Center
07:56PM 31.2839 -87.4822 233° Southwest 415 478 34,000  Level Houston Center
07:57PM 31.2147 -87.5919 234° Southwest 418 481 34,000  Level Houston Center
07:58PM 31.1450 -87.7036 234° Southwest 418 481 34,000  Level Houston Center
07:59PM 31.0747 -87.8131 233° Southwest 420 483 34,000  Level Houston Center
08:00PM 31.0033 -87.9236 233° Southwest 427 491 34,000  Level Houston Center
08:01PM 30.9322 -88.0331 233° Southwest 426 490 34,000  Level Houston Center
08:02PM 30.8478 -88.1656 233° Southwest 426 490 34,000  Level Houston Center
08:03PM 30.7767 -88.2758 233° Southwest 426 490 34,000  Level Houston Center
08:04PM 30.7111 -88.3894 236° Southwest 425 489 34,000  Level Houston Center
08:05PM 30.6658 -88.5264 249° West 428 493 34,000  Level Houston Center
08:06PM 30.6228 -88.6553 249° West 428 493 34,000  Level Houston Center
08:07PM 30.5781 -88.7844 248° West 430 495 34,000  Level Houston Center
08:08PM 30.5342 -88.9133 248° West 431 496 34,000  Level Houston Center
08:09PM 30.4836 -89.0603 248° West 434 499 34,000  Level Houston Center
08:10PM 30.4381 -89.1886 248° West 431 496 34,000  Level Houston Center
08:11PM 30.3950 -89.3189 249° West 433 498 34,000  Level Houston Center
08:12PM 30.3494 -89.4478 248° West 432 497 34,000  Level Houston Center
08:14PM 30.3036 -89.5764 248° West 431 496 34,000  Level Houston Center
08:15PM 30.2558 -89.7069 247° West 431 496 34,000  Level Houston Center
08:16PM 30.2067 -89.8431 247° West 443 510 34,000  Level Houston Center
08:17PM 30.1633 -89.9725 249° West 432 497 34,000  Level Houston Center
08:18PM 30.1164 -90.1019 247° West 434 499 34,000  Level Houston Center
08:19PM 30.0606 -90.2594 248° West 440 506 34,000  Level Houston Center
08:20PM 30.0131 -90.3892 247° West 441 507 34,000 -60 Level Houston Center
08:21PM 29.9658 -90.5200 247° West 442 509 33,900  Descending Houston Center
08:22PM 29.9189 -90.6492 247° West 437 503 34,000  Climbing Houston Center
08:23PM 29.8719 -90.7775 247° West 437 503 34,000  Level Houston Center
08:24PM 29.8256 -90.9058 247° West 434 499 34,000  Level Houston Center
08:25PM 29.7703 -91.0578 247° West 431 496 34,000  Level Houston Center
08:26PM 29.7228 -91.1828 246° West 427 491 34,000  Level Houston Center
08:27PM 29.6408 -91.2853 227° Southwest 437 503 34,000  Level Houston Center
08:28PM 29.5589 -91.3881 228° Southwest 436 502 34,000  Level Houston Center
08:29PM 29.4764 -91.4906 227° Southwest 437 503 34,000  Level Houston Center
08:30PM 29.4411 -91.6119 252° West 416 479 34,000  Level Houston Center
08:31PM 29.4467 -91.7469 273° West 414 476 34,000  Level Houston Center
08:32PM 29.4508 -91.9050 272° West 412 474 34,000  Level Houston Center
08:33PM 29.4569 -92.0353 273° West 410 472 34,000  Level Houston Center
08:34PM 29.4619 -92.1656 273° West 410 472 34,000  Level Houston Center
08:35PM 29.4678 -92.2964 273° West 411 473 34,000  Level Houston Center
08:36PM 29.4728 -92.4261 273° West 407 468 34,000  Level Houston Center
08:37PM 29.4767 -92.5575 272° West 411 473 34,000  Level Houston Center
08:38PM 29.4822 -92.6881 273° West 410 472 34,000  Level Houston Center
08:39PM 29.4875 -92.8453 272° West 411 473 34,000  Level Houston Center
08:40PM 29.4928 -92.9747 273° West 408 470 34,000  Level Houston Center
08:41PM 29.4972 -93.1064 272° West 412 474 34,000  Level Houston Center
08:42PM 29.5019 -93.2383 272° West 413 475 34,000 -180 Level Houston Center
08:43PM 29.5061 -93.3703 272° West 413 475 33,700 -1,860 Descending Houston Center
08:44PM 29.5097 -93.5011 272° West 412 474 30,200 -3,360 Descending Houston Center
08:45PM 29.5133 -93.6367 272° West 421 484 26,900 -2,940 Descending Houston Center
08:46PM 29.5175 -93.7694 272° West 418 481 24,200 -2,880 Descending Houston Center
08:48PM 29.5217 -93.9242 272° West 405 466 21,000 -2,820 Descending Houston Center
08:49PM 29.5253 -94.0483 272° West 392 451 18,500 -2,460 Descending Houston Center
08:49PM 29.5256 -94.0914 270° West 386 444 17,600 -2,520 Descending Houston Center
08:50PM 29.5286 -94.1717 273° West 379 436 15,900 -2,520 Descending Houston Center
08:51PM 29.5311 -94.2925 271° West 369 425 13,500 -1,440 Descending Houston Center
08:52PM 29.5553 -94.3964 285° West 352 405 13,000 -780 Descending Houston Center
08:53PM 29.5981 -94.5003 295° West 344 396 12,000 -1,260 Descending Houston Center
08:54PM 29.6411 -94.5983 297° West 337 388 10,600 -1,020 Descending Houston Center
08:55PM 29.6789 -94.6842 297° West 332 382 9,900 -1,140 Descending Houston Center
08:56PM 29.7203 -94.7856 295° West 293 337 8,200 -1,740 Descending Houston Center
08:57PM 29.7531 -94.8633 296° West 297 342 6,600 -1,080 Descending Houston Center
08:58PM 29.7931 -94.9544 297° West 298 343 6,000 -300 Descending Houston Center
08:59PM 29.8281 -95.0392 295° West 296 341 6,000  Level Houston Center
09:00PM 29.8636 -95.1242 296° West 294 338 6,000  Level Houston Center
09:02PM 29.8989 -95.3006 283° West 284 327 6,000  Level Houston Center
09:03PM 29.8997 -95.3992 271° West 282 325 6,000  Level Houston Center
09:04PM 29.8994 -95.4908 270° West 284 327 6,000  Level Houston Center
09:05PM 29.9014 -95.5797 271° West 278 320 6,000  Level Houston Center
09:06PM 29.9008 -95.6689 270° West 250 288 6,000  Level Houston Center
09:07PM 29.9000 -95.7317 269° West 212 244 6,000  Level Houston Center
09:07PM 29.9011 -95.7403 278° West 220 253 6,000  Level Houston Center
09:08PM 29.9311 -95.7981 301° West 239 275 6,000 -300 Level Houston Center
09:09PM 29.9853 -95.7675 26° Northeast 224 258 5,500 -540 Descending Houston Center
09:10PM 29.9925 -95.7089 82° East 210 242 5,000 -300 Descending Houston Center
09:11PM 29.9936 -95.6508 89° East 187 215 5,000 -180 Level Houston Center
09:11PM 29.9936 -95.6372 90° East 194 223 4,800 -1,200 Descending Houston Center
09:12PM 29.9922 -95.5883 92° East 191 220 3,800 -1,080 Descending Houston Center
09:12PM 29.9933 -95.5764 84° East 191 220 3,700 -840 Descending Houston Center
09:13PM 29.9936 -95.5328 90° East 176 203 3,000 -900 Descending Houston Center
09:13PM 29.9942 -95.5197 87° East 184 212 2,800 -1,020 Descending Houston Center
09:14PM 29.9928 -95.4772 92° East 174 200 2,000 -1,200 Descending Houston Center